createdAt,value
2022-09-07T03:58:36.649Z,20.86
2022-09-07T03:59:36.632Z,20.93
2022-09-07T04:00:36.634Z,20.96
2022-09-07T04:01:36.701Z,20.96
2022-09-07T04:02:36.728Z,20.83
2022-09-07T04:03:36.634Z,20.91
2022-09-07T04:04:36.631Z,20.97
2022-09-07T04:05:36.633Z,20.96
2022-09-07T04:06:36.665Z,20.93
2022-09-07T04:07:36.654Z,21.00
2022-09-07T04:08:36.650Z,21.03
2022-09-07T04:09:36.654Z,21.00
2022-09-07T04:10:36.662Z,21.09
2022-09-07T04:11:34.972Z,21.04
2022-09-07T04:12:34.975Z,21.03
2022-09-07T04:13:36.165Z,20.97
2022-09-07T04:14:34.973Z,21.06
2022-09-07T04:15:36.160Z,21.15
2022-09-07T04:16:35.006Z,21.12
2022-09-07T04:17:34.955Z,21.23
2022-09-07T04:18:35.949Z,21.22
2022-09-07T04:19:34.946Z,21.16
2022-09-07T04:20:36.657Z,21.21
2022-09-07T04:21:34.945Z,21.18
2022-09-07T04:22:34.941Z,21.21
2022-09-07T04:23:35.946Z,21.16
2022-09-07T04:24:34.955Z,21.21
2022-09-07T04:25:36.672Z,21.28
2022-09-07T04:26:35.931Z,21.18
2022-09-07T04:27:36.662Z,21.27
2022-09-07T04:28:35.921Z,21.28
2022-09-07T04:29:36.658Z,21.31
2022-09-07T04:30:36.254Z,21.27
2022-09-07T04:31:36.666Z,21.30
2022-09-07T04:32:36.664Z,21.30
2022-09-07T04:33:36.664Z,21.34
2022-09-07T04:34:36.657Z,21.31
2022-09-07T04:35:36.700Z,21.37
2022-09-07T04:36:36.680Z,21.30
2022-09-07T04:37:34.908Z,21.40
2022-09-07T04:38:34.889Z,21.43
2022-09-07T04:39:36.764Z,21.48
2022-09-07T04:40:34.886Z,21.46
2022-09-07T04:41:34.906Z,21.46
2022-09-07T04:42:34.880Z,21.52
2022-09-07T04:43:34.877Z,21.53
2022-09-07T04:44:36.184Z,21.55
2022-09-07T04:45:34.909Z,21.55
2022-09-07T04:46:34.887Z,21.58
2022-09-07T04:47:34.868Z,21.53
2022-09-07T04:48:36.186Z,21.56
2022-09-07T04:49:36.670Z,21.49
2022-09-07T04:50:36.675Z,21.56
2022-09-07T04:51:36.687Z,21.59
2022-09-07T04:52:36.678Z,21.59
2022-09-07T04:53:36.676Z,21.64
2022-09-07T04:54:36.689Z,21.51
2022-09-07T04:55:36.686Z,21.51
2022-09-07T04:56:36.713Z,21.51
2022-09-07T04:57:36.697Z,21.51
2022-09-07T04:58:36.694Z,21.52
2022-09-07T04:59:36.704Z,21.53
2022-09-07T05:00:34.828Z,21.59
2022-09-07T05:01:36.757Z,21.58
2022-09-07T05:02:36.775Z,21.51
2022-09-07T05:03:36.683Z,21.43
2022-09-07T05:04:34.838Z,21.46
2022-09-07T05:05:34.808Z,21.46
2022-09-07T05:06:34.806Z,21.46
2022-09-07T05:07:36.704Z,21.40
2022-09-07T05:08:34.810Z,21.41
2022-09-07T05:09:34.803Z,21.48
2022-09-07T05:10:36.200Z,21.45
2022-09-07T05:11:34.801Z,21.38
2022-09-07T05:12:34.798Z,21.38
2022-09-07T05:13:34.813Z,21.43
2022-09-07T05:14:36.701Z,21.41
2022-09-07T05:15:34.789Z,21.43
2022-09-07T05:16:36.285Z,21.38
2022-09-07T05:17:34.804Z,21.38
2022-09-07T05:18:34.781Z,21.40
2022-09-07T05:19:34.790Z,21.38
2022-09-07T05:20:36.698Z,21.40
2022-09-07T05:21:36.730Z,21.34
2022-09-07T05:22:34.794Z,21.34
2022-09-07T05:23:36.693Z,21.34
2022-09-07T05:24:36.714Z,21.38
2022-09-07T05:25:36.699Z,21.34
2022-09-07T05:26:36.711Z,21.38
2022-09-07T05:27:35.756Z,21.33
2022-09-07T05:28:36.722Z,21.40
2022-09-07T05:31:36.708Z,21.33
2022-09-07T05:32:36.714Z,21.34
2022-09-07T05:34:36.720Z,21.41
2022-09-07T05:35:34.720Z,21.34
2022-09-07T05:36:35.716Z,21.40
2022-09-07T05:37:36.208Z,21.51
2022-09-07T05:38:36.220Z,21.45
2022-09-07T05:39:37.778Z,21.53
2022-09-07T05:40:40.515Z,21.61
2022-09-07T05:41:36.235Z,21.53
2022-09-07T05:42:36.212Z,21.58
2022-09-07T05:43:36.228Z,21.61
2022-09-07T05:44:43.842Z,21.61
2022-09-07T05:45:36.274Z,21.68
2022-09-07T05:46:36.239Z,21.74
2022-09-07T05:47:36.245Z,21.74
2022-09-07T05:48:35.796Z,21.78
2022-09-07T05:49:34.680Z,21.83
2022-09-07T05:50:35.495Z,21.78
2022-09-07T05:51:35.964Z,21.90
2022-09-07T05:52:34.798Z,21.90
2022-09-07T05:53:35.677Z,21.93
2022-09-07T05:54:34.728Z,22.00
2022-09-07T05:55:34.784Z,22.09
2022-09-07T05:56:35.783Z,22.11
2022-09-07T05:57:34.702Z,22.15
2022-09-07T05:58:34.968Z,22.22
2022-09-07T06:00:34.643Z,22.26
2022-09-07T06:01:36.996Z,22.29
2022-09-07T06:02:39.524Z,22.26
2022-09-07T06:03:36.284Z,22.31
2022-09-07T06:04:36.630Z,22.39
2022-09-07T06:05:34.721Z,22.41
2022-09-07T06:06:36.252Z,22.46
2022-09-07T06:07:36.241Z,22.45
2022-09-07T06:08:36.238Z,22.51
2022-09-07T06:09:36.315Z,22.61
2022-09-07T06:10:44.673Z,22.63
2022-09-07T06:11:36.242Z,22.66
2022-09-07T06:12:36.256Z,22.59
2022-09-07T06:13:36.273Z,22.71
2022-09-07T06:14:36.259Z,22.73
2022-09-07T06:15:36.276Z,22.82
2022-09-07T06:16:34.687Z,22.81
2022-09-07T06:17:36.275Z,22.85
2022-09-07T06:18:34.624Z,22.88
2022-09-07T06:19:34.636Z,22.94
2022-09-07T06:20:35.755Z,22.97
2022-09-07T06:21:35.629Z,22.97
2022-09-07T06:22:34.615Z,23.07
2022-09-07T06:23:36.254Z,23.06
2022-09-07T06:24:36.292Z,23.09
2022-09-07T06:25:36.291Z,23.10
2022-09-07T06:26:34.661Z,23.06
2022-09-07T06:27:36.255Z,23.10
2022-09-07T06:28:36.265Z,23.24
2022-09-07T06:29:35.604Z,23.24
2022-09-07T06:30:36.302Z,23.28
2022-09-07T06:31:35.805Z,23.37
2022-09-07T06:32:44.107Z,23.37
2022-09-07T06:33:36.260Z,23.40
2022-09-07T06:34:36.314Z,23.44
2022-09-07T06:36:35.584Z,23.47
2022-09-07T06:37:36.360Z,23.53
2022-09-07T06:38:36.270Z,23.60
2022-09-07T06:39:34.665Z,23.53
2022-09-07T06:40:34.723Z,23.59
2022-09-07T06:42:34.647Z,23.67
2022-09-07T06:43:34.621Z,23.71
2022-09-07T06:44:34.811Z,23.78
2022-09-07T06:45:34.720Z,23.78
2022-09-07T06:47:34.575Z,23.77
2022-09-07T06:48:34.594Z,23.90
2022-09-07T06:49:34.573Z,23.92
2022-09-07T06:50:34.643Z,23.93
2022-09-07T06:51:38.001Z,23.96
2022-09-07T06:53:43.119Z,24.00
2022-09-07T06:55:04.558Z,24.08
2022-09-07T06:55:36.470Z,24.07
2022-09-07T06:56:34.640Z,24.12
2022-09-07T06:57:36.355Z,24.19
2022-09-07T06:58:39.176Z,24.24
2022-09-07T06:59:36.324Z,24.29
2022-09-07T07:00:36.367Z,24.18
2022-09-07T07:01:36.327Z,24.24
2022-09-07T07:02:36.811Z,24.29
2022-09-07T07:03:36.344Z,24.30
2022-09-07T07:04:40.463Z,24.42
2022-09-07T07:05:36.335Z,24.39
2022-09-07T07:06:36.311Z,24.37
2022-09-07T07:07:36.308Z,24.52
2022-09-07T07:08:37.321Z,24.51
2022-09-07T07:09:36.455Z,24.45
2022-09-07T07:10:36.296Z,24.52
2022-09-07T07:11:37.331Z,24.61
2022-09-07T07:13:36.397Z,24.70
2022-09-07T07:14:36.267Z,24.66
2022-09-07T07:15:34.558Z,24.77
2022-09-07T07:16:34.667Z,24.78
2022-09-07T07:17:36.331Z,24.71
2022-09-07T07:18:35.901Z,24.74
2022-09-07T07:19:35.616Z,24.93
2022-09-07T07:20:34.575Z,24.90
2022-09-07T07:21:55.350Z,25.04
2022-09-07T07:22:46.665Z,24.90
2022-09-07T07:23:38.104Z,25.02
2022-09-07T07:24:35.007Z,25.09
2022-09-07T07:25:34.566Z,25.04
2022-09-07T07:26:36.977Z,25.12
2022-09-07T07:27:37.353Z,25.05
2022-09-07T07:29:34.788Z,25.19
2022-09-07T07:30:48.868Z,25.26
2022-09-07T07:31:37.332Z,25.34
2022-09-07T07:32:36.175Z,25.37
2022-09-07T07:33:36.492Z,25.37
2022-09-07T07:34:59.557Z,25.49
2022-09-07T07:35:34.642Z,25.37
2022-09-07T07:36:35.806Z,25.49
2022-09-07T07:37:36.680Z,25.52
2022-09-07T07:40:39.135Z,25.54
2022-09-07T07:42:36.373Z,25.56
2022-09-07T07:43:36.357Z,25.64
2022-09-07T07:44:34.552Z,25.66
2022-09-07T07:46:06.161Z,25.64
2022-09-07T07:46:35.036Z,25.66
2022-09-07T07:47:37.456Z,25.74
2022-09-07T07:48:34.582Z,25.74
2022-09-07T07:49:35.284Z,25.74
2022-09-07T07:50:36.390Z,25.74
2022-09-07T07:53:41.043Z,25.79
2022-09-07T07:53:42.591Z,25.79
2022-09-07T07:54:36.624Z,25.84
2022-09-07T07:55:50.119Z,25.78
2022-09-07T07:56:35.478Z,25.91
2022-09-07T07:57:36.617Z,25.78
2022-09-07T07:58:34.696Z,25.93
2022-09-07T07:59:37.427Z,25.89
2022-09-07T08:00:51.007Z,25.88
2022-09-07T08:01:36.370Z,25.93
2022-09-07T08:02:36.422Z,25.89
2022-09-07T08:03:36.590Z,25.96
2022-09-07T08:04:36.473Z,26.00
2022-09-07T08:05:36.365Z,25.97
2022-09-07T08:06:36.361Z,25.97
2022-09-07T08:07:37.360Z,26.09
2022-09-07T08:08:36.354Z,26.11
2022-09-07T08:09:36.367Z,26.11
2022-09-07T08:10:34.621Z,26.17
2022-09-07T08:11:34.574Z,26.24
2022-09-07T08:12:36.378Z,26.24
2022-09-07T08:13:34.566Z,26.23
2022-09-07T08:14:34.660Z,26.23
2022-09-07T08:15:36.407Z,26.31
2022-09-07T08:16:34.597Z,26.35
2022-09-07T08:17:35.883Z,26.44
2022-09-07T08:18:36.382Z,26.44
2022-09-07T08:19:34.608Z,26.37
2022-09-07T08:20:34.585Z,26.38
2022-09-07T08:21:34.559Z,26.41
2022-09-07T08:22:36.415Z,26.52
2022-09-07T08:23:34.559Z,26.52
2022-09-07T08:24:34.569Z,26.50
2022-09-07T08:25:34.570Z,26.57
2022-09-07T08:26:34.564Z,26.59
2022-09-07T08:27:35.884Z,26.60
2022-09-07T08:28:34.580Z,26.61
2022-09-07T08:29:36.365Z,26.67
2022-09-07T08:30:36.379Z,26.76
2022-09-07T08:31:36.465Z,26.78
2022-09-07T08:32:36.393Z,26.86
2022-09-07T08:33:36.498Z,26.89
2022-09-07T08:34:34.569Z,26.82
2022-09-07T08:35:36.390Z,27.00
2022-09-07T08:36:36.398Z,26.96
2022-09-07T08:37:36.389Z,26.99
2022-09-07T08:38:36.400Z,27.04
2022-09-07T08:39:36.426Z,27.06
2022-09-07T08:40:37.387Z,27.13
2022-09-07T08:41:36.494Z,27.21
2022-09-07T08:42:36.454Z,27.28
2022-09-07T08:43:36.421Z,27.23
2022-09-07T08:44:36.395Z,27.27
2022-09-07T08:45:36.419Z,27.31
2022-09-07T08:46:36.543Z,27.33
2022-09-07T08:47:36.386Z,27.27
2022-09-07T08:48:36.398Z,27.38
2022-09-07T08:49:36.396Z,27.43
2022-09-07T08:50:36.384Z,27.46
2022-09-07T08:51:36.521Z,27.38
2022-09-07T08:52:36.408Z,27.45
2022-09-07T08:53:36.390Z,27.46
2022-09-07T08:54:36.475Z,27.51
2022-09-07T08:55:36.487Z,27.53
2022-09-07T08:56:36.608Z,27.51
2022-09-07T08:57:36.428Z,27.48
2022-09-07T08:58:50.187Z,27.53
2022-09-07T08:59:34.598Z,27.55
2022-09-07T09:00:36.407Z,27.55
2022-09-07T09:01:35.477Z,27.61
2022-09-07T09:02:43.215Z,27.62
2022-09-07T09:03:35.006Z,27.65
2022-09-07T09:05:15.185Z,27.61
2022-09-07T09:05:36.534Z,27.59
2022-09-07T09:06:36.181Z,27.53
2022-09-07T09:07:34.612Z,27.59
2022-09-07T09:08:36.449Z,27.66
2022-09-07T09:09:36.420Z,27.72
2022-09-07T09:10:34.633Z,27.72
2022-09-07T09:11:34.621Z,27.68
2022-09-07T09:12:37.801Z,27.72
2022-09-07T09:13:36.418Z,27.75
2022-09-07T09:14:35.953Z,27.69
2022-09-07T09:15:36.475Z,27.81
2022-09-07T09:16:36.410Z,27.80
2022-09-07T09:17:36.438Z,27.75
2022-09-07T09:18:35.928Z,27.80
2022-09-07T09:19:34.662Z,27.76
2022-09-07T09:20:36.463Z,27.83
2022-09-07T09:21:36.429Z,27.84
2022-09-07T09:22:34.630Z,27.89
2022-09-07T09:23:34.658Z,27.84
2022-09-07T09:24:34.647Z,27.86
2022-09-07T09:25:37.833Z,27.87
2022-09-07T09:26:35.650Z,27.93
2022-09-07T09:27:39.665Z,28.02
2022-09-07T09:28:39.905Z,27.94
2022-09-07T09:29:34.671Z,28.06
2022-09-07T09:30:42.955Z,28.06
2022-09-07T09:31:36.836Z,28.03
2022-09-07T09:32:34.692Z,28.03
2022-09-07T09:33:34.715Z,27.96
2022-09-07T09:34:35.188Z,28.03
2022-09-07T09:35:36.441Z,28.12
2022-09-07T09:36:34.661Z,28.09
2022-09-07T09:37:37.377Z,28.14
2022-09-07T09:38:34.799Z,28.18
2022-09-07T09:39:34.754Z,28.27
2022-09-07T09:40:35.575Z,28.20
2022-09-07T09:41:36.719Z,28.26
2022-09-07T09:42:34.667Z,28.35
2022-09-07T09:43:34.665Z,28.30
2022-09-07T09:44:34.700Z,28.30
2022-09-07T09:46:39.152Z,28.42
2022-09-07T09:47:35.039Z,28.43
2022-09-07T09:48:48.083Z,28.49
2022-09-07T09:49:41.676Z,28.55
2022-09-07T09:52:45.136Z,28.58
2022-09-07T09:53:35.468Z,28.53
2022-09-07T09:54:36.463Z,28.61
2022-09-07T09:55:36.670Z,28.61
2022-09-07T09:56:36.453Z,28.68
2022-09-07T09:57:36.587Z,28.64
2022-09-07T10:01:20.463Z,28.68
2022-09-07T10:12:52.094Z,28.86
2022-09-07T10:13:51.573Z,28.88
2022-09-07T10:14:50.578Z,28.97
2022-09-07T10:15:51.643Z,28.97
2022-09-07T10:16:52.095Z,28.95
2022-09-07T10:17:52.125Z,28.92
2022-09-07T10:18:52.608Z,28.98
2022-09-07T10:19:52.601Z,28.86
2022-09-07T10:20:50.594Z,28.91
2022-09-07T10:21:52.089Z,28.97
2022-09-07T10:22:51.618Z,28.94
2022-09-07T10:23:50.596Z,28.94
2022-09-07T10:24:51.665Z,28.97
2022-09-07T10:25:51.603Z,28.97
2022-09-07T10:26:50.611Z,29.05
2022-09-07T10:27:52.646Z,29.03
2022-09-07T10:29:50.592Z,29.11
2022-09-07T10:30:51.258Z,29.06
2022-09-07T10:31:50.609Z,29.15
2022-09-07T10:32:52.199Z,29.11
2022-09-07T10:34:52.107Z,29.17
2022-09-07T10:35:50.618Z,29.18
2022-09-07T10:36:52.662Z,29.26
2022-09-07T10:37:50.621Z,29.40
2022-09-07T10:38:50.620Z,29.29
2022-09-07T10:39:50.645Z,29.38
2022-09-07T10:40:52.589Z,29.36
2022-09-07T10:41:50.637Z,29.40
2022-09-07T10:43:50.627Z,29.48
2022-09-07T10:44:52.649Z,29.52
2022-09-07T10:45:50.727Z,29.54
2022-09-07T10:46:59.911Z,29.57
2022-09-07T10:47:52.622Z,29.70
2022-09-07T10:48:52.159Z,29.69
2022-09-07T10:50:50.639Z,29.82
2022-09-07T10:51:52.627Z,29.87
2022-09-07T10:52:51.649Z,29.92
2022-09-07T10:54:50.650Z,30.11
2022-09-07T10:55:52.616Z,30.10
2022-09-07T10:57:52.625Z,30.19
2022-09-07T10:59:06.097Z,30.25
2022-09-07T11:00:08.787Z,30.16
2022-09-07T11:00:51.716Z,30.22
2022-09-07T11:01:51.714Z,30.28
2022-09-07T11:03:50.754Z,30.37
2022-09-07T11:04:50.689Z,30.29
2022-09-07T11:05:52.774Z,30.35
2022-09-07T11:06:52.212Z,30.42
2022-09-07T11:08:00.679Z,30.47
2022-09-07T11:09:52.644Z,30.51
2022-09-07T11:10:52.621Z,30.49
2022-09-07T11:12:07.916Z,30.56
2022-09-07T11:12:53.166Z,30.52
2022-09-07T11:14:11.954Z,30.49
2022-09-07T11:14:51.775Z,30.51
2022-09-07T11:15:51.485Z,30.48
2022-09-07T11:16:52.455Z,30.52
2022-09-07T11:17:55.371Z,30.56
2022-09-07T11:18:52.970Z,30.51
2022-09-07T11:19:50.734Z,30.52
2022-09-07T11:20:51.334Z,30.57
2022-09-07T11:21:57.978Z,30.52
2022-09-07T11:22:53.501Z,30.56
2022-09-07T11:23:50.746Z,30.51
2022-09-07T11:25:52.146Z,30.60
2022-09-07T11:26:52.638Z,30.56
2022-09-07T11:27:52.645Z,30.56
2022-09-07T11:29:52.645Z,30.56
2022-09-07T11:30:56.627Z,30.62
2022-09-07T11:31:52.673Z,30.66
2022-09-07T11:32:52.732Z,30.60
2022-09-07T11:34:52.180Z,30.59
2022-09-07T11:35:52.668Z,30.49
2022-09-07T11:36:50.794Z,30.56
2022-09-07T11:37:50.805Z,30.49
2022-09-07T11:38:52.186Z,30.54
2022-09-07T11:39:52.743Z,30.49
2022-09-07T11:40:52.683Z,30.57
2022-09-07T11:41:52.653Z,30.54
2022-09-07T11:42:52.654Z,30.54
2022-09-07T11:43:52.674Z,30.59
2022-09-07T11:44:52.704Z,30.57
2022-09-07T11:45:52.727Z,30.64
2022-09-07T11:46:52.664Z,30.71
2022-09-07T11:47:52.696Z,30.75
2022-09-07T11:48:52.674Z,30.85
2022-09-07T11:49:55.055Z,30.79
2022-09-07T11:50:53.681Z,30.84
2022-09-07T11:51:54.077Z,30.85
2022-09-07T11:52:53.929Z,30.89
2022-09-07T11:53:52.705Z,31.04
2022-09-07T11:54:52.774Z,31.04
2022-09-07T11:55:51.953Z,31.23
2022-09-07T11:56:52.687Z,31.28
2022-09-07T11:57:55.573Z,31.28
2022-09-07T11:58:50.857Z,31.23
2022-09-07T11:59:53.687Z,31.26
2022-09-07T12:00:50.872Z,31.23
2022-09-07T12:01:50.951Z,31.23
2022-09-07T12:03:00.960Z,31.28
2022-09-07T12:03:52.315Z,31.25
2022-09-07T12:04:55.966Z,31.23
2022-09-07T12:05:50.906Z,31.23
2022-09-07T12:06:52.699Z,31.18
2022-09-07T12:07:50.896Z,31.23
2022-09-07T12:08:50.893Z,31.21
2022-09-07T12:09:50.896Z,31.15
2022-09-07T12:10:50.920Z,31.08
2022-09-07T12:11:52.739Z,31.06
2022-09-07T12:12:51.567Z,31.06
2022-09-07T12:13:50.906Z,31.08
2022-09-07T12:14:52.782Z,31.00
2022-09-07T12:15:52.762Z,31.04
2022-09-07T12:16:50.924Z,30.89
2022-09-07T12:17:52.807Z,30.93
2022-09-07T12:18:50.930Z,30.93
2022-09-07T12:19:52.937Z,30.89
2022-09-07T12:20:50.939Z,30.85
2022-09-07T12:21:52.718Z,30.84
2022-09-07T12:22:50.947Z,30.91
2022-09-07T12:23:52.704Z,30.84
2022-09-07T12:24:52.813Z,30.81
2022-09-07T12:25:52.750Z,30.84
2022-09-07T12:26:52.706Z,30.78
2022-09-07T12:27:52.708Z,30.71
2022-09-07T12:28:52.721Z,30.63
2022-09-07T12:29:52.807Z,30.67
2022-09-07T12:30:52.763Z,30.62
2022-09-07T12:32:52.352Z,30.64
2022-09-07T12:32:54.240Z,30.51
2022-09-07T12:33:50.982Z,30.54
2022-09-07T12:34:52.733Z,30.44
2022-09-07T12:35:52.740Z,30.45
2022-09-07T12:36:52.712Z,30.52
2022-09-07T12:37:52.716Z,30.48
2022-09-07T12:38:50.997Z,30.45
2022-09-07T12:39:52.797Z,30.44
2022-09-07T12:40:52.743Z,30.37
2022-09-07T12:42:52.721Z,30.39
2022-09-07T12:43:52.735Z,30.32
2022-09-07T12:44:52.742Z,30.37
2022-09-07T12:45:52.870Z,30.32
2022-09-07T12:46:52.795Z,30.40
2022-09-07T12:47:52.743Z,30.34
2022-09-07T12:48:52.726Z,30.31
2022-09-07T12:49:52.747Z,30.34
2022-09-07T12:50:52.772Z,30.31
2022-09-07T12:52:05.049Z,30.22
2022-09-07T12:52:52.731Z,30.35
2022-09-07T12:53:57.444Z,30.37
2022-09-07T12:55:10.089Z,30.28
2022-09-07T12:57:52.748Z,30.39
2022-09-07T12:58:52.787Z,30.34
2022-09-07T12:59:52.758Z,30.37
2022-09-07T13:00:52.750Z,30.35
2022-09-07T13:01:52.961Z,30.37
2022-09-07T13:02:52.764Z,30.48
2022-09-07T13:03:52.763Z,30.42
2022-09-07T13:04:53.013Z,30.45
2022-09-07T13:05:52.828Z,30.54
2022-09-07T13:07:08.119Z,30.44
2022-09-07T13:07:51.078Z,30.54
2022-09-07T13:08:51.079Z,30.69
2022-09-07T13:09:51.072Z,30.89
2022-09-07T13:10:52.773Z,30.94
2022-09-07T13:11:51.084Z,31.12
2022-09-07T13:12:56.490Z,31.26
2022-09-07T13:14:09.573Z,31.50
2022-09-07T13:14:52.753Z,31.70
2022-09-07T13:15:52.833Z,31.80
2022-09-07T13:17:52.761Z,31.71
2022-09-07T13:18:52.806Z,31.74
2022-09-07T13:19:52.765Z,31.94
2022-09-07T13:20:53.662Z,32.05
2022-09-07T13:21:51.116Z,32.17
2022-09-07T13:22:51.117Z,32.28
2022-09-07T13:23:53.175Z,32.34
2022-09-07T13:24:52.817Z,32.32
2022-09-07T13:25:52.788Z,32.31
2022-09-07T13:26:52.790Z,32.31
2022-09-07T13:27:52.875Z,32.43
2022-09-07T13:28:52.777Z,32.59
2022-09-07T13:29:52.775Z,32.71
2022-09-07T13:30:51.222Z,32.75
2022-09-07T13:31:52.964Z,32.86
2022-09-07T13:33:08.685Z,32.90
2022-09-07T13:33:51.179Z,32.91
2022-09-07T13:34:51.182Z,33.13
2022-09-07T13:35:51.166Z,33.17
2022-09-07T13:36:52.803Z,33.36
2022-09-07T13:37:52.822Z,33.43
2022-09-07T13:38:52.805Z,33.41
2022-09-07T13:39:51.239Z,33.61
2022-09-07T13:40:51.199Z,33.78
2022-09-07T13:41:52.802Z,33.93
2022-09-07T13:42:52.814Z,34.17
2022-09-07T13:43:51.220Z,34.34
2022-09-07T13:44:52.805Z,34.46
2022-09-07T13:45:51.273Z,34.67
2022-09-07T13:46:51.287Z,34.78
2022-09-07T13:47:52.314Z,34.69
2022-09-07T13:48:52.824Z,34.89
2022-09-07T13:49:55.156Z,34.99
2022-09-07T13:50:51.243Z,35.05
2022-09-07T13:51:52.809Z,34.94
2022-09-07T13:52:51.258Z,34.97
2022-09-07T13:53:52.816Z,35.09
2022-09-07T13:54:51.267Z,35.21
2022-09-07T13:55:52.817Z,35.18
2022-09-07T13:56:51.280Z,35.31
2022-09-07T13:57:52.833Z,35.30
2022-09-07T13:58:51.299Z,35.43
2022-09-07T13:59:52.842Z,35.42
2022-09-07T14:00:52.938Z,35.34
2022-09-07T14:01:51.494Z,35.40
2022-09-07T14:02:56.715Z,35.45
2022-09-07T14:03:52.829Z,35.57
2022-09-07T14:04:51.339Z,35.53
2022-09-07T14:05:53.315Z,35.53
2022-09-07T14:06:51.350Z,35.67
2022-09-07T14:07:51.358Z,35.68
2022-09-07T14:08:53.336Z,35.77
2022-09-07T14:09:51.368Z,35.69
2022-09-07T14:10:53.322Z,35.69
2022-09-07T14:11:51.397Z,35.86
2022-09-07T14:12:52.838Z,35.69
2022-09-07T14:13:52.405Z,35.77
2022-09-07T14:14:52.436Z,35.74
2022-09-07T14:15:52.412Z,35.62
2022-09-07T14:16:53.422Z,35.57
2022-09-07T14:17:53.368Z,35.62
2022-09-07T14:18:53.336Z,35.65
2022-09-07T14:19:53.348Z,35.64
2022-09-07T14:20:51.451Z,35.71
2022-09-07T14:21:53.342Z,35.79
2022-09-07T14:22:53.639Z,35.67
2022-09-07T14:23:52.461Z,35.76
2022-09-07T14:24:53.352Z,35.71
2022-09-07T14:26:21.342Z,35.60
2022-09-07T14:26:53.368Z,35.49
2022-09-07T14:27:53.368Z,35.55
2022-09-07T14:28:52.496Z,35.52
2022-09-07T14:29:53.356Z,35.47
2022-09-07T14:30:53.461Z,35.30
2022-09-07T14:31:53.648Z,35.26
2022-09-07T14:32:53.382Z,35.21
2022-09-07T14:33:53.357Z,35.12
2022-09-07T14:34:53.349Z,35.11
2022-09-07T14:35:53.397Z,35.09
2022-09-07T14:36:53.376Z,35.05
2022-09-07T14:37:53.380Z,35.11
2022-09-07T14:39:08.766Z,35.06
2022-09-07T14:39:53.474Z,35.09
2022-09-07T14:40:53.365Z,35.02
2022-09-07T14:41:53.361Z,34.93
2022-09-07T14:42:53.414Z,34.94
2022-09-07T14:43:53.361Z,34.97
2022-09-07T14:44:51.602Z,34.97
2022-09-07T14:45:52.441Z,34.96
2022-09-07T14:46:55.382Z,34.86
2022-09-07T14:47:53.387Z,34.81
2022-09-07T14:48:55.117Z,34.84
2022-09-07T14:49:53.408Z,34.72
2022-09-07T14:51:11.015Z,34.72
2022-09-07T14:51:53.385Z,34.67
2022-09-07T14:53:53.371Z,34.59
2022-09-07T14:54:53.391Z,34.59
2022-09-07T14:55:53.383Z,34.49
2022-09-07T14:56:53.394Z,34.52
2022-09-07T14:57:53.389Z,34.48
2022-09-07T14:58:53.406Z,34.52
2022-09-07T14:59:53.385Z,34.54
2022-09-07T15:01:53.460Z,34.54
2022-09-07T15:02:53.399Z,34.69
2022-09-07T15:03:53.491Z,34.69
2022-09-07T15:04:53.477Z,34.66
2022-09-07T15:05:55.547Z,34.66
2022-09-07T15:07:01.256Z,34.66
2022-09-07T15:07:53.394Z,34.58
2022-09-07T15:08:53.422Z,34.54
2022-09-07T15:09:53.401Z,34.51
2022-09-07T15:11:53.426Z,34.30
2022-09-07T15:12:53.393Z,34.26
2022-09-07T15:13:53.412Z,34.30
2022-09-07T15:14:51.780Z,34.17
2022-09-07T15:15:51.779Z,34.08
2022-09-07T15:17:42.587Z,34.06
2022-09-07T15:17:53.958Z,34.02
2022-09-07T15:18:51.786Z,33.97
2022-09-07T15:19:51.787Z,33.89
2022-09-07T15:20:53.058Z,33.83
2022-09-07T15:21:51.797Z,33.77
2022-09-07T15:22:54.349Z,33.74
2022-09-07T15:23:51.808Z,33.66
2022-09-07T15:24:51.819Z,33.59
2022-09-07T15:25:54.161Z,33.50
2022-09-07T15:27:07.216Z,33.44
2022-09-07T15:27:52.827Z,33.48
2022-09-07T15:29:09.829Z,33.41
2022-09-07T15:29:52.845Z,33.34
2022-09-07T15:31:40.483Z,33.29
2022-09-07T15:32:02.224Z,33.13
2022-09-07T15:32:53.478Z,33.12
2022-09-07T15:33:52.946Z,33.03
2022-09-07T15:34:51.858Z,33.02
2022-09-07T15:35:53.436Z,33.02
2022-09-07T15:36:52.267Z,32.90
2022-09-07T15:38:02.323Z,32.75
2022-09-07T15:39:00.720Z,32.71
2022-09-07T15:39:53.028Z,32.68
2022-09-07T15:41:20.831Z,32.72
2022-09-07T15:41:53.757Z,32.62
2022-09-07T15:43:01.192Z,32.54
2022-09-07T15:43:53.458Z,32.45
2022-09-07T15:44:53.450Z,32.42
2022-09-07T15:45:52.978Z,32.38
2022-09-07T15:47:53.752Z,32.24
2022-09-07T15:48:52.954Z,32.17
2022-09-07T15:49:53.888Z,32.12
2022-09-07T15:50:54.231Z,32.03
2022-09-07T15:52:08.930Z,32.05
2022-09-07T15:52:53.442Z,32.00
2022-09-07T15:54:12.810Z,31.98
2022-09-07T15:54:54.032Z,31.97
2022-09-07T15:55:53.460Z,31.90
2022-09-07T15:58:05.531Z,31.75
2022-09-07T15:58:54.825Z,31.67
2022-09-07T15:59:53.953Z,31.65
2022-09-07T16:13:16.952Z,30.93
2022-09-07T16:14:13.146Z,30.93
2022-09-07T16:15:12.703Z,30.86
2022-09-07T16:16:15.678Z,30.85
2022-09-07T16:17:28.142Z,30.82
2022-09-07T16:18:12.001Z,30.86
2022-09-07T16:19:12.731Z,30.73
2022-09-07T16:20:13.156Z,30.85
2022-09-07T16:21:12.549Z,30.64
2022-09-07T16:23:13.148Z,30.70
2022-09-07T16:23:15.917Z,30.62
2022-09-07T16:24:11.560Z,30.66
2022-09-07T16:25:12.573Z,30.64
2022-09-07T16:26:13.149Z,30.60
2022-09-07T16:27:13.173Z,30.52
2022-09-07T16:28:13.801Z,30.47
2022-09-07T16:29:13.161Z,30.42
2022-09-07T16:30:13.522Z,30.39
2022-09-07T16:31:14.051Z,30.29
2022-09-07T16:33:13.337Z,30.32
2022-09-07T16:34:13.165Z,30.16
2022-09-07T16:35:15.549Z,30.26
2022-09-07T16:36:12.675Z,30.14
2022-09-07T16:37:13.156Z,30.24
2022-09-07T16:39:13.182Z,30.11
2022-09-07T16:40:11.648Z,30.06
2022-09-07T16:41:11.592Z,30.07
2022-09-07T16:42:11.601Z,30.04
2022-09-07T16:43:11.625Z,29.94
2022-09-07T16:44:13.267Z,29.94
2022-09-07T16:46:11.601Z,29.85
2022-09-07T16:47:11.619Z,29.87
2022-09-07T16:48:13.661Z,29.92
2022-09-07T16:49:11.632Z,29.84
2022-09-07T16:50:11.644Z,29.85
2022-09-07T16:51:11.622Z,29.81
2022-09-07T16:52:13.193Z,29.72
2022-09-07T16:53:11.626Z,29.77
2022-09-07T16:54:11.622Z,29.66
2022-09-07T16:55:11.621Z,29.65
2022-09-07T16:56:11.637Z,29.57
2022-09-07T16:57:13.194Z,29.57
2022-09-07T16:59:13.203Z,29.54
2022-09-07T17:00:13.199Z,29.54
2022-09-07T17:01:13.230Z,29.52
2022-09-07T17:02:13.197Z,29.47
2022-09-07T17:03:13.191Z,29.45
2022-09-07T17:04:13.252Z,29.42
2022-09-07T17:05:13.184Z,29.36
2022-09-07T17:06:13.196Z,29.35
2022-09-07T17:07:13.187Z,29.33
2022-09-07T17:08:13.186Z,29.30
2022-09-07T17:09:13.203Z,29.29
2022-09-07T17:10:13.192Z,29.23
2022-09-07T17:11:13.336Z,29.28
2022-09-07T17:12:13.203Z,29.18
2022-09-07T17:13:13.195Z,29.21
2022-09-07T17:14:13.223Z,29.21
2022-09-07T17:15:13.211Z,29.13
2022-09-07T17:16:13.375Z,29.14
2022-09-07T17:17:13.199Z,29.05
2022-09-07T17:18:12.694Z,29.08
2022-09-07T17:19:42.335Z,29.01
2022-09-07T17:20:11.664Z,28.95
2022-09-07T17:21:12.672Z,28.95
2022-09-07T17:22:13.230Z,28.91
2022-09-07T17:23:11.674Z,28.94
2022-09-07T17:24:12.724Z,28.90
2022-09-07T17:25:14.022Z,28.88
2022-09-07T17:26:12.677Z,28.85
2022-09-07T17:27:13.447Z,28.86
2022-09-07T17:28:11.690Z,28.86
2022-09-07T17:29:13.107Z,28.90
2022-09-07T17:30:13.230Z,28.80
2022-09-07T17:32:23.945Z,28.82
2022-09-07T17:32:28.670Z,28.82
2022-09-07T17:33:12.744Z,28.73
2022-09-07T17:34:12.727Z,28.68
2022-09-07T17:35:11.695Z,28.65
2022-09-07T17:36:13.242Z,28.76
2022-09-07T17:37:13.238Z,28.72
2022-09-07T17:39:16.330Z,28.58
2022-09-07T17:40:11.734Z,28.64
2022-09-07T17:41:13.219Z,28.57
2022-09-07T17:42:13.230Z,28.53
2022-09-07T17:44:13.285Z,28.48
2022-09-07T17:45:13.235Z,28.51
2022-09-07T17:46:13.341Z,28.42
2022-09-07T17:47:13.281Z,28.45
2022-09-07T17:48:13.273Z,28.41
2022-09-07T17:49:13.283Z,28.41
2022-09-07T17:50:13.253Z,28.35
2022-09-07T17:51:13.244Z,28.31
2022-09-07T17:52:13.250Z,28.31
2022-09-07T17:53:13.236Z,28.24
2022-09-07T17:54:13.303Z,28.28
2022-09-07T17:55:13.239Z,28.30
2022-09-07T17:56:13.244Z,28.26
2022-09-07T17:57:13.257Z,28.39
2022-09-07T17:58:13.242Z,28.24
2022-09-07T18:00:13.292Z,28.24